Home   Weather   Spain   Salamanca   Past weeks
Flag for Spain

Past Weather in Salamanca, Spain — Yesterday and Last 2 Weeks

Currently: 82 °F. Passing clouds. (Weather station: Salamanca / Matacan, Spain). See more current weather

Past Weather in Salamanca — Graph

°F

Salamanca Temperature Yesterday

Maximum temperature yesterday: 82 °F (at 4:30 pm)
Minimum temperature yesterday: 61 °F (at 7:00 am)
Average temperature yesterday: 71 °F

High & Low Weather Summary for the Past Weeks

 TemperatureHumidityPressure
High93 °F (Jul 21, 4:30 pm)100% (Jul 26, 4:00 am)30.15 "Hg (Jul 26, 4:00 am)
Low46 °F (Aug 1, 7:00 am)8% (Jul 22, 3:30 pm)29.92 "Hg (Jul 25, 6:30 pm)
Average69 °F58%30.03 "Hg
* Reported Jul 21 1:00 pm — Aug 5 1:30 pm, Salamanca. Weather by CustomWeather, © 2021

Note: Actual official high and low records may vary slightly from our data, if they occured in-between our weather recording intervals... More about our weather records

Salamanca Weather History for the Previous 24 Hours

Scroll right to see more
 ConditionsComfort  
Time TempWeatherWind HumidityBarometerVisibility
1:30 pm
Thu, Aug 5
81 °FPassing clouds.9 mph37%30.09 "HgN/A
1:00 pm79 °FPassing clouds.10 mph39%30.09 "HgN/A
12:30 pm79 °FSunny.10 mph34%30.12 "Hg10 mi
12:00 pm77 °FSunny.9 mph32%30.12 "Hg10 mi
11:30 am75 °FPassing clouds.5 mph31%30.12 "HgN/A
11:00 am73 °FPassing clouds.6 mph36%30.12 "HgN/A
10:30 am70 °FPassing clouds.5 mph43%30.12 "HgN/A
10:00 am66 °FSunny.2 mph64%30.12 "Hg10 mi
9:30 am64 °FSunny.2 mph64%30.12 "Hg10 mi
9:00 am63 °FSunny.2 mph68%30.12 "Hg10 mi
8:30 am57 °FSunny.1 mph82%30.12 "Hg10 mi
8:00 am55 °FSunny.6 mph82%30.12 "Hg10 mi
7:30 am55 °FSunny.5 mph82%30.12 "Hg10 mi
7:00 am54 °FClear.No wind88%30.12 "Hg10 mi
6:30 am54 °FClear.No wind94%30.12 "Hg10 mi
6:00 am57 °FClear.No wind82%30.12 "Hg10 mi
5:30 am57 °FClear.No wind82%30.12 "Hg10 mi
5:00 am57 °FClear.3 mph82%30.12 "Hg10 mi
4:30 am57 °FClear.6 mph82%30.12 "Hg10 mi
4:00 am57 °FClear.7 mph77%30.12 "Hg10 mi
3:30 am59 °FClear.7 mph72%30.12 "Hg10 mi
3:00 am57 °FClear.1 mph77%30.12 "Hg10 mi
1:30 am61 °FClear.No wind68%30.15 "Hg10 mi
1:00 am59 °FPassing clouds.5 mph82%30.15 "HgN/A
12:30 am59 °FClear.6 mph77%30.15 "Hg10 mi
12:00 am63 °FClear.6 mph59%30.12 "Hg10 mi
11:30 pm
Wed, Aug 4
66 °FClear.2 mph52%30.12 "Hg10 mi
11:00 pm64 °FClear.3 mph60%30.12 "Hg10 mi
10:30 pm64 °FClear.5 mph68%30.12 "Hg10 mi
10:00 pm68 °FClear.6 mph53%30.09 "Hg10 mi
9:30 pm73 °FSunny.7 mph38%30.09 "Hg10 mi
9:00 pm75 °FSunny.6 mph36%30.09 "Hg10 mi
8:30 pm79 °FPassing clouds.9 mph32%30.07 "HgN/A
8:00 pm81 °FPassing clouds.8 mph30%30.07 "HgN/A
7:30 pm81 °FPassing clouds.8 mph28%30.07 "HgN/A
7:00 pm82 °FPassing clouds.9 mph28%30.07 "HgN/A
6:30 pm82 °FPassing clouds.10 mph26%30.07 "HgN/A
6:00 pm82 °FPassing clouds.9 mph26%30.07 "HgN/A
5:30 pm82 °FPassing clouds.8 mph28%30.09 "HgN/A
5:00 pm82 °FPassing clouds.8 mph30%30.09 "HgN/A
4:30 pm82 °FPassing clouds.9 mph30%30.09 "HgN/A
4:00 pm81 °FPassing clouds.7 mph37%30.09 "HgN/A
3:30 pm81 °FSunny.2 mph37%30.09 "Hg10 mi
3:00 pm79 °FPassing clouds.5 mph42%30.09 "HgN/A
2:30 pm77 °FScattered clouds.2 mph44%30.09 "HgN/A
2:00 pm77 °FScattered clouds.3 mph47%30.09 "HgN/A
Weather by CustomWeather, © 2021

See weather overview